Time,TemperatureF,DewpointF,PressureIn,WindDirection,WindDirectionDegrees,WindSpeedMPH,WindSpeedGustMPH,Humidity,HourlyPrecipIn,Conditions,Clouds,dailyrainin,SolarRadiationWatts/m^2,SoftwareType,DateUTC
2013-08-31 00:14:00,76.0,75.0,-100.00,SSE,147,1.0,-999.0,96,0.00,,,-99.99,0.000000,,2013-08-31 04:14:00,
2013-08-31 00:24:00,76.0,75.0,-100.00,SSE,149,1.0,-999.0,96,0.00,,,-99.99,0.000000,,2013-08-31 04:24:00,
2013-08-31 00:54:00,76.0,75.0,-100.00,South,188,0.0,-999.0,96,0.00,,,-99.99,0.000000,,2013-08-31 04:54:00,
2013-08-31 01:13:00,76.0,75.0,-100.00,South,188,0.0,-999.0,96,0.00,,,-99.99,0.000000,,2013-08-31 05:13:00,
2013-08-31 01:23:00,76.0,75.0,-100.00,South,172,0.0,-999.0,96,0.00,,,-99.99,0.000000,,2013-08-31 05:23:00,
2013-08-31 01:42:00,76.0,75.0,-100.00,SSE,168,0.0,-999.0,97,0.00,,,-99.99,0.000000,,2013-08-31 05:42:00,
2013-08-31 01:53:00,76.0,75.0,-100.00,SSW,210,1.0,-999.0,97,0.00,,,-99.99,0.000000,,2013-08-31 05:53:00,
2013-08-31 02:12:00,75.0,74.0,-100.00,South,177,0.0,-999.0,96,0.00,,,-99.99,0.000000,,2013-08-31 06:12:00,
2013-08-31 02:22:00,75.0,74.0,-100.00,SSE,162,1.0,-999.0,97,0.00,,,-99.99,0.000000,,2013-08-31 06:22:00,
2013-08-31 02:52:00,75.0,74.0,-100.00,SSE,164,1.0,-999.0,97,0.00,,,-99.99,0.000000,,2013-08-31 06:52:00,
2013-08-31 03:12:00,75.0,74.0,-100.00,SSE,159,1.0,-999.0,97,0.00,,,-99.99,0.000000,,2013-08-31 07:12:00,
2013-08-31 03:22:00,75.0,74.0,-100.00,South,172,1.0,-999.0,97,0.00,,,-99.99,0.000000,,2013-08-31 07:22:00,
2013-08-31 03:42:00,75.0,74.0,-100.00,SSE,156,1.0,-999.0,97,0.00,,,-99.99,0.000000,,2013-08-31 07:42:00,
2013-08-31 03:52:00,75.0,74.0,-100.00,South,172,1.0,-999.0,96,0.00,,,-99.99,0.000000,,2013-08-31 07:52:00,
2013-08-31 04:12:00,75.0,74.0,-100.00,SSE,156,1.0,-999.0,96,0.00,,,-99.99,0.000000,,2013-08-31 08:12:00,
2013-08-31 04:22:00,74.0,74.0,-100.00,South,172,1.0,-999.0,96,0.00,,,-99.99,0.000000,,2013-08-31 08:22:00,
2013-08-31 04:42:00,74.0,73.0,-100.00,SE,145,1.0,-999.0,96,0.00,,,-99.99,0.000000,,2013-08-31 08:42:00,
2013-08-31 04:52:00,74.0,73.0,-100.00,South,177,1.0,-999.0,96,0.00,,,-99.99,0.000000,,2013-08-31 08:52:00,
2013-08-31 05:12:00,74.0,73.0,-100.00,South,175,1.0,-999.0,96,0.00,,,-99.99,0.000000,,2013-08-31 09:12:00,
2013-08-31 05:23:00,74.0,73.0,-100.00,SSW,202,1.0,-999.0,96,0.00,,,-99.99,0.000000,,2013-08-31 09:23:00,
2013-08-31 05:44:00,75.0,74.0,-100.00,SSW,205,1.0,-999.0,96,0.00,,,-99.99,0.000000,,2013-08-31 09:44:00,
2013-08-31 05:53:00,75.0,74.0,-100.00,SW,217,2.0,-999.0,96,0.00,,,-99.99,0.000000,,2013-08-31 09:53:00,
2013-08-31 06:13:00,75.0,74.0,-100.00,South,185,1.0,-999.0,96,0.00,,,-99.99,0.000000,,2013-08-31 10:13:00,
2013-08-31 06:23:00,75.0,74.0,-100.00,SSW,206,1.0,-999.0,96,0.00,,,-99.99,0.000000,,2013-08-31 10:23:00,
2013-08-31 06:43:00,75.0,74.0,-100.00,SW,215,1.0,-999.0,96,0.00,,,-99.99,0.000000,,2013-08-31 10:43:00,
2013-08-31 06:53:00,75.0,73.0,-100.00,SW,228,1.0,-999.0,96,0.00,,,-99.99,0.000000,,2013-08-31 10:53:00,
2013-08-31 07:12:00,74.0,73.0,-100.00,WSW,257,1.0,-999.0,96,0.00,,,-99.99,0.000000,,2013-08-31 11:12:00,
2013-08-31 07:22:00,74.0,73.0,-100.00,West,259,2.0,-999.0,96,0.00,,,-99.99,0.400000,,2013-08-31 11:22:00,
2013-08-31 07:42:00,74.0,73.0,-100.00,SW,225,1.0,-999.0,96,0.00,,,-99.99,3.700000,,2013-08-31 11:42:00,
2013-08-31 07:52:00,74.0,73.0,-100.00,SSW,200,1.0,-999.0,96,0.00,,,-99.99,23.500000,,2013-08-31 11:52:00,
2013-08-31 08:12:00,75.0,74.0,-100.00,SSW,213,1.0,-999.0,96,0.00,,,-99.99,67.599998,,2013-08-31 12:12:00,
2013-08-31 08:22:00,76.0,75.0,-100.00,South,177,1.0,-999.0,95,0.00,,,-99.99,108.699997,,2013-08-31 12:22:00,
2013-08-31 08:52:00,79.0,76.0,-100.00,SSE,166,1.0,-999.0,93,0.00,,,-99.99,211.800003,,2013-08-31 12:52:00,
2013-08-31 09:11:00,80.0,77.0,-100.00,South,187,1.0,-999.0,90,0.00,,,-99.99,269.000000,,2013-08-31 13:11:00,
2013-08-31 09:22:00,81.0,77.0,-100.00,SSE,164,2.0,-999.0,87,0.00,,,-99.99,319.899994,,2013-08-31 13:22:00,
2013-08-31 09:52:00,82.0,78.0,-100.00,South,172,2.0,-999.0,85,0.00,,,-99.99,420.500000,,2013-08-31 13:52:00,
2013-08-31 10:12:00,83.0,78.0,-100.00,South,181,2.0,-999.0,84,0.00,,,-99.99,475.299988,,2013-08-31 14:12:00,
2013-08-31 10:22:00,84.0,78.0,-100.00,South,189,2.0,-999.0,82,0.00,,,-99.99,524.700012,,2013-08-31 14:22:00,
2013-08-31 10:42:00,84.0,78.0,-100.00,SSW,200,2.0,-999.0,80,0.00,,,-99.99,573.299988,,2013-08-31 14:42:00,
2013-08-31 10:52:00,85.0,77.0,-100.00,South,191,3.0,-999.0,76,0.00,,,-99.99,622.299988,,2013-08-31 14:52:00,
2013-08-31 11:12:00,86.0,76.0,-100.00,SSW,203,3.0,-999.0,73,0.00,,,-99.99,666.799988,,2013-08-31 15:12:00,
2013-08-31 11:23:00,87.0,76.0,-100.00,SSW,200,2.0,-999.0,71,0.00,,,-99.99,707.000000,,2013-08-31 15:23:00,
2013-08-31 11:34:00,87.0,76.0,-100.00,SSW,200,2.0,-999.0,71,0.00,,,-99.99,707.000000,,2013-08-31 15:34:00,
2013-08-31 11:44:00,87.0,76.0,-100.00,SSW,200,2.0,-999.0,71,0.00,,,-99.99,707.000000,,2013-08-31 15:44:00,
2013-08-31 11:55:00,88.0,76.0,-100.00,SSW,194,3.0,-999.0,67,0.00,,,-99.99,801.000000,,2013-08-31 15:55:00,
2013-08-31 12:14:00,88.0,76.0,-100.00,SW,221,3.0,-999.0,66,0.00,,,-99.99,816.000000,,2013-08-31 16:14:00,
2013-08-31 12:25:00,89.0,75.0,-100.00,SSW,201,3.0,-999.0,64,0.00,,,-99.99,851.000000,,2013-08-31 16:25:00,
2013-08-31 12:44:00,89.0,75.0,-100.00,SSW,208,3.0,-999.0,64,0.00,,,-99.99,870.000000,,2013-08-31 16:44:00,
2013-08-31 12:53:00,90.0,76.0,-100.00,SSW,194,2.0,-999.0,63,0.00,,,-99.99,872.000000,,2013-08-31 16:53:00,
2013-08-31 13:13:00,90.0,75.0,-100.00,SW,214,4.0,-999.0,61,0.00,,,-99.99,908.000000,,2013-08-31 17:13:00,
2013-08-31 13:23:00,90.0,75.0,-100.00,SW,214,4.0,-999.0,61,0.00,,,-99.99,929.000000,,2013-08-31 17:23:00,
2013-08-31 13:43:00,90.0,74.0,-100.00,WSW,245,4.0,-999.0,58,0.00,,,-99.99,979.000000,,2013-08-31 17:43:00,
2013-08-31 13:53:00,88.0,75.0,-100.00,West,278,7.0,-999.0,66,0.00,,,-99.99,681.500000,,2013-08-31 17:53:00,
2013-08-31 14:13:00,89.0,75.0,-100.00,SW,231,3.0,-999.0,62,0.00,,,-99.99,898.000000,,2013-08-31 18:13:00,
2013-08-31 14:22:00,90.0,75.0,-100.00,SW,234,3.0,-999.0,60,0.00,,,-99.99,725.000000,,2013-08-31 18:22:00,
2013-08-31 14:42:00,92.0,75.0,-100.00,SW,223,3.0,-999.0,57,0.00,,,-99.99,902.000000,,2013-08-31 18:42:00,
2013-08-31 14:52:00,91.0,74.0,-100.00,SW,214,3.0,-999.0,56,0.00,,,-99.99,799.000000,,2013-08-31 18:52:00,
2013-08-31 15:12:00,92.0,74.0,-100.00,SSW,207,4.0,-999.0,55,0.00,,,-99.99,883.000000,,2013-08-31 19:12:00,
2013-08-31 15:22:00,92.0,74.0,-100.00,SW,235,4.0,-999.0,55,0.00,,,-99.99,882.000000,,2013-08-31 19:22:00,
2013-08-31 15:42:00,91.0,74.0,-100.00,SW,225,4.0,-999.0,56,0.00,,,-99.99,693.500000,,2013-08-31 19:42:00,
2013-08-31 15:52:00,91.0,74.0,-100.00,WSW,242,3.0,-999.0,56,0.00,,,-99.99,548.500000,,2013-08-31 19:52:00,
2013-08-31 16:12:00,90.0,74.0,-100.00,WNW,288,5.0,-999.0,58,0.00,,,-99.99,566.200012,,2013-08-31 20:12:00,
2013-08-31 16:22:00,91.0,74.0,-100.00,West,277,7.0,-999.0,57,0.00,,,-99.99,779.000000,,2013-08-31 20:22:00,
2013-08-31 16:42:00,90.0,74.0,-100.00,West,262,5.0,-999.0,58,0.00,,,-99.99,318.000000,,2013-08-31 20:42:00,
2013-08-31 16:53:00,87.0,74.0,-100.00,West,274,8.0,-999.0,64,0.00,,,-99.99,138.300003,,2013-08-31 20:53:00,
2013-08-31 17:12:00,87.0,75.0,-100.00,West,273,6.0,-999.0,66,0.00,,,-99.99,447.500000,,2013-08-31 21:12:00,
2013-08-31 17:22:00,88.0,75.0,-100.00,West,277,7.0,-999.0,64,0.00,,,-99.99,575.599976,,2013-08-31 21:22:00,
2013-08-31 17:44:00,88.0,72.0,-100.00,West,274,7.0,-999.0,58,0.00,,,-99.99,553.099976,,2013-08-31 21:44:00,
2013-08-31 17:54:00,89.0,71.0,-100.00,West,279,5.0,-999.0,55,0.00,,,-99.99,460.399994,,2013-08-31 21:54:00,
2013-08-31 18:13:00,89.0,71.0,-100.00,West,277,5.0,-999.0,55,0.00,,,-99.99,401.600006,,2013-08-31 22:13:00,
2013-08-31 18:24:00,89.0,72.0,-100.00,WSW,256,6.0,-999.0,58,0.00,,,-99.99,361.500000,,2013-08-31 22:24:00,
2013-08-31 18:43:00,89.0,72.0,-100.00,West,272,5.0,-999.0,56,0.00,,,-99.99,294.799988,,2013-08-31 22:43:00,
2013-08-31 18:53:00,89.0,71.0,-100.00,WSW,244,4.0,-999.0,55,0.00,,,-99.99,253.699997,,2013-08-31 22:53:00,
2013-08-31 19:12:00,88.0,72.0,-100.00,West,267,5.0,-999.0,57,0.00,,,-99.99,204.600006,,2013-08-31 23:12:00,
2013-08-31 19:23:00,88.0,72.0,-100.00,West,277,5.0,-999.0,58,0.00,,,-99.99,159.000000,,2013-08-31 23:23:00,
2013-08-31 19:42:00,88.0,71.0,-100.00,WSW,252,4.0,-999.0,57,0.00,,,-99.99,117.000000,,2013-08-31 23:42:00,
2013-08-31 19:52:00,87.0,71.0,-100.00,WSW,241,2.0,-999.0,60,0.00,,,-99.99,57.500000,,2013-08-31 23:52:00,
2013-08-31 20:11:00,85.0,71.0,-100.00,West,259,4.0,-999.0,62,0.00,,,-99.99,15.700000,,2013-09-01 00:11:00,
2013-08-31 20:22:00,85.0,72.0,-100.00,West,260,4.0,-999.0,66,0.00,,,-99.99,2.500000,,2013-09-01 00:22:00,
2013-08-31 20:42:00,84.0,72.0,-100.00,WSW,245,2.0,-999.0,67,0.00,,,-99.99,0.100000,,2013-09-01 00:42:00,
2013-08-31 20:52:00,82.0,72.0,-100.00,SW,220,1.0,-999.0,70,0.00,,,-99.99,0.000000,,2013-09-01 00:52:00,
2013-08-31 21:11:00,82.0,72.0,-100.00,SW,229,1.0,-999.0,72,0.00,,,-99.99,0.000000,,2013-09-01 01:11:00,
2013-08-31 21:22:00,82.0,72.0,-100.00,SW,231,2.0,-999.0,72,0.00,,,-99.99,0.000000,,2013-09-01 01:22:00,
2013-08-31 21:42:00,82.0,73.0,-100.00,SE,139,2.0,-999.0,74,0.00,,,-99.99,0.000000,,2013-09-01 01:42:00,
2013-08-31 21:52:00,81.0,73.0,-100.00,SSE,162,1.0,-999.0,75,0.00,,,-99.99,0.000000,,2013-09-01 01:52:00,
2013-08-31 22:12:00,81.0,72.0,-100.00,SSE,167,2.0,-999.0,75,0.00,,,-99.99,0.000000,,2013-09-01 02:12:00,
2013-08-31 22:23:00,80.0,72.0,-100.00,South,177,2.0,-999.0,76,0.00,,,-99.99,0.000000,,2013-09-01 02:23:00,
2013-08-31 22:43:00,79.0,72.0,-100.00,South,169,2.0,-999.0,79,0.00,,,-99.99,0.000000,,2013-09-01 02:43:00,
2013-08-31 22:53:00,79.0,72.0,-100.00,SSW,192,2.0,-999.0,79,0.00,,,-99.99,0.000000,,2013-09-01 02:53:00,
2013-08-31 23:12:00,79.0,72.0,-100.00,South,183,2.0,-999.0,79,0.00,,,-99.99,0.000000,,2013-09-01 03:12:00,
2013-08-31 23:23:00,79.0,72.0,-100.00,South,175,2.0,-999.0,79,0.00,,,-99.99,0.000000,,2013-09-01 03:23:00,
2013-08-31 23:44:00,78.0,72.0,-100.00,South,181,1.0,-999.0,82,0.00,,,-99.99,0.000000,,2013-09-01 03:44:00,
2013-08-31 23:54:00,78.0,72.0,-100.00,South,186,1.0,-999.0,83,0.00,,,-99.99,0.000000,,2013-09-01 03:54:00,